PDT,Max TemperatureF,Mean TemperatureF,Min TemperatureF,Max Dew PointF,MeanDew PointF,Min DewpointF,Max Humidity, Mean Humidity, Min Humidity, Max Sea Level PressureIn, Mean Sea Level PressureIn, Min Sea Level PressureIn, Max VisibilityMiles, Mean VisibilityMiles, Min VisibilityMiles, Max Wind SpeedMPH, Mean Wind SpeedMPH, Max Gust SpeedMPH,PrecipitationIn, CloudCover, Events, WindDirDegrees
2012-9-1,81,73,66,65,63,59,94,77,50,29.92,29.90,29.88,10,8,0,8,2,,0.00,2,Fog,263
2012-9-2,78,69,63,65,60,51,87,72,51,29.93,29.89,29.86,10,10,6,9,2,,0.00,0,,280
2012-9-3,77,68,62,65,63,60,94,81,60,29.97,29.92,29.89,10,8,2,8,1,,0.01,2,,246
2012-9-4,82,74,66,67,64,59,90,72,47,29.98,29.95,29.91,10,8,2,9,2,,0.00,1,,262
2012-9-5,86,78,71,67,63,55,84,67,42,29.96,29.93,29.91,10,10,8,10,2,,0.00,0,,244
2012-9-6,80,74,69,67,63,57,90,72,45,29.97,29.94,29.91,10,9,2,10,2,,0.00,2,,223
2012-9-7,79,74,68,67,63,58,84,70,57,30.01,29.97,29.93,10,10,10,9,3,,0.00,0,,259
2012-9-8,79,73,68,65,63,59,87,76,52,29.94,29.90,29.85,10,10,9,9,3,,0.00,0,,232
2012-9-9,79,74,69,68,65,62,88,76,58,29.90,29.86,29.81,10,9,6,10,2,,0.00,1,Rain,250
2012-9-10,82,75,69,68,67,64,90,78,58,29.91,29.87,29.82,10,8,4,8,3,,0.00,3,Thunderstorm,230
2012-9-11,75,72,71,68,67,66,88,84,78,29.98,29.92,29.84,10,8,3,10,3,,0.00,8,,231
2012-9-12,79,74,69,67,66,64,90,80,66,30.01,29.97,29.92,10,10,8,9,3,,0.00,6,,272
2012-9-13,73,70,68,66,65,64,93,85,78,30.01,29.97,29.91,8,5,3,7,3,,0.00,5,,259
2012-9-14,93,78,66,66,61,48,90,59,31,29.96,29.92,29.86,10,8,5,10,2,17,0.01,0,,257
2012-9-15,100,86,73,57,46,40,53,28,13,29.98,29.94,29.89,10,10,10,10,3,,0.00,0,,206
2012-9-16,81,72,64,66,63,53,96,77,51,30.03,29.99,29.95,10,7,0,9,2,,0.00,3,Fog,202
2012-9-17,75,72,68,65,63,62,87,78,66,30.02,29.98,29.93,10,8,6,9,3,,0.00,4,,252
2012-9-18,75,70,66,65,63,62,87,79,68,30.01,29.97,29.93,10,8,5,10,2,16,0.00,4,,266
2012-9-19,77,70,64,65,63,61,88,80,64,29.97,29.94,29.88,10,9,7,12,1,,0.00,2,,255
2012-9-20,81,72,64,67,64,60,100,85,50,29.93,29.91,29.86,10,5,0,9,1,,0.00,4,Fog,232
2012-9-21,78,73,68,68,66,64,90,80,64,29.91,29.88,29.83,9,7,4,9,2,,0.00,3,,230
2012-9-22,81,74,68,68,66,60,96,83,54,29.92,29.88,29.85,10,5,0,10,1,,0.00,4,Fog,257
2012-9-23,82,74,66,68,65,60,100,82,46,29.94,29.90,29.88,10,5,0,12,1,18,0.01,2,Fog,238
2012-9-24,78,72,66,66,63,59,90,76,56,29.97,29.93,29.89,10,9,6,12,2,,0.00,1,,244
2012-9-25,72,67,62,64,61,57,94,80,68,29.93,29.89,29.85,10,8,4,10,1,,0.00,3,,254
2012-9-26,73,68,64,62,60,57,84,75,59,29.88,29.86,29.82,10,10,8,9,2,,0.00,3,,275
2012-9-27,75,68,64,64,63,61,88,81,68,29.92,29.88,29.85,10,8,6,7,1,,0.00,4,,285
2012-9-28,75,70,64,65,63,61,94,82,64,29.92,29.88,29.83,10,6,2,9,1,,0.00,4,,275
2012-9-29,78,71,64,64,62,57,94,75,57,29.96,29.91,29.88,10,8,5,12,2,,0.00,1,,260
2012-9-30,82,74,66,66,61,55,84,66,47,29.96,29.92,29.88,10,9,6,7,1,,0.00,0,,253